Arlington, NJ

11:03 PM EDT on August 28, 2015 (GMT -0400)
APRSWXNET KEARNY, NJ | | Change Station
CLOSE
Current Station
Personal Weather Station
Location: Kearny, NJ
Elevation: 98 ft
Nearby Weather Stations

Elev 98 ft 40.77 °N, 74.14 °W | Updated 4 seconds ago

Clear
Clear
69.4 °F
Feels Like 69.4 °F
N
0.0
Wind Variable Wind from West
Gusts 0.0 mph

Today
High -- | Low -- °F
--% Chance of Precip.
Yesterday
High -- | Low -- °F
Precip. -- in
6:19 AM 7:35 PM
Waxing Gibbous, 99% visible
Pressure 30.19 in
Visibility 10.0 miles
Clouds Few 6000 ft
Scattered Clouds 25000 ft
Dew Point 54 °F
Humidity 57%
Rainfall 0.00 in
Snow Depth Not available.
UV 0 out of 12
Pollen 10.00 out of 12
Air Quality Not available.
Flu Activity Not available.
METAR KEWR 290251Z 03004KT 10SM FEW060 SCT250 22/12 A3019 RMK AO2 SLP223 T02220117 51016
Pressure 30.19 in
Visibility 10.0 miles
Clouds Few 6000 ft
Scattered Clouds 25000 ft
Dew Point 54 °F
Humidity 57%
Rainfall 0.00 in
Snow Depth Not available.
UV 0 out of 12
Pollen 10.00 out of 12
Air Quality Not available.
Flu Activity Not available.
METAR KEWR 290251Z 03004KT 10SM FEW060 SCT250 22/12 A3019 RMK AO2 SLP223 T02220117 51016

10-Day Weather Forecast

×

Almanac

Astronomy

Aug. 28, 2015 Rise Set
Actual Time
Civil Twilight
Nautical Twilight
Astronomical Twilight
Moon
Length of Visible Light
Length of Day
Tomorrow will be .
, % of the Moon is Illuminated

Today's Extremes

State Highs State Lows

Community

WunderPhotos

Upload Photos

1,850,593 photos uploaded!

WunderBlogs® & News

Nearby

Air Quality

  Air Quality AQ Index Pollutant
Not available.

Snow Depth

Station Depth Elevation

Earthquake Activity

City Distance Mag. Time & Date
Minimum magnitude displayed is 2.5.

Coastal Water Temperatures

Place Temperature

Stations

Nearby Weather Stations

Station Location Temp. Windchill Dew Point Humidity Wind Precip. Elev Updated Type